sensor_id;sensor_type;location;lat;lon;timestamp;pressure;altitude;pressure_sealevel;temperature;humidity
56713;BME280;42589;45.536;9.032;2023-03-20T00:00:08;99956.13;;;17.52;43.46
56713;BME280;42589;45.536;9.032;2023-03-20T00:03:10;99956.94;;;17.52;43.33
56713;BME280;42589;45.536;9.032;2023-03-20T00:06:14;99962.97;;;17.54;42.97
56713;BME280;42589;45.536;9.032;2023-03-20T00:09:15;99952.78;;;17.50;43.30
56713;BME280;42589;45.536;9.032;2023-03-20T00:12:22;99961.03;;;16.69;44.77
56713;BME280;42589;45.536;9.032;2023-03-20T00:15:32;99967.53;;;16.96;43.74
56713;BME280;42589;45.536;9.032;2023-03-20T00:18:34;99941.50;;;16.60;45.76
56713;BME280;42589;45.536;9.032;2023-03-20T00:21:35;99964.16;;;17.09;44.70
56713;BME280;42589;45.536;9.032;2023-03-20T00:24:36;99965.25;;;17.14;44.20
56713;BME280;42589;45.536;9.032;2023-03-20T00:27:37;99935.75;;;16.63;45.41
56713;BME280;42589;45.536;9.032;2023-03-20T00:30:39;99964.41;;;16.92;44.03
56713;BME280;42589;45.536;9.032;2023-03-20T00:33:40;99945.81;;;16.91;44.06
56713;BME280;42589;45.536;9.032;2023-03-20T00:36:41;99953.78;;;16.69;45.71
56713;BME280;42589;45.536;9.032;2023-03-20T00:39:42;99924.38;;;16.76;45.11
56713;BME280;42589;45.536;9.032;2023-03-20T00:42:44;99958.84;;;17.15;44.04
56713;BME280;42589;45.536;9.032;2023-03-20T00:45:46;99965.59;;;17.26;43.74
56713;BME280;42589;45.536;9.032;2023-03-20T00:48:47;99943.22;;;17.19;43.51
56713;BME280;42589;45.536;9.032;2023-03-20T00:51:52;99957.97;;;17.30;43.74
56713;BME280;42589;45.536;9.032;2023-03-20T00:54:52;99957.66;;;17.82;43.41
56713;BME280;42589;45.536;9.032;2023-03-20T00:58:00;99957.66;;;17.39;43.86
56713;BME280;42589;45.536;9.032;2023-03-20T01:01:02;99954.72;;;17.13;43.85
56713;BME280;42589;45.536;9.032;2023-03-20T01:04:10;99953.31;;;17.17;44.17
56713;BME280;42589;45.536;9.032;2023-03-20T01:07:13;99957.97;;;17.08;44.01
56713;BME280;42589;45.536;9.032;2023-03-20T01:10:14;99952.09;;;17.20;43.66
56713;BME280;42589;45.536;9.032;2023-03-20T01:13:22;99950.81;;;16.94;44.85
56713;BME280;42589;45.536;9.032;2023-03-20T01:16:24;99946.50;;;16.78;44.56
56713;BME280;42589;45.536;9.032;2023-03-20T01:19:25;99927.25;;;16.96;44.28
56713;BME280;42589;45.536;9.032;2023-03-20T01:22:27;99937.31;;;17.09;43.76
56713;BME280;42589;45.536;9.032;2023-03-20T01:25:27;99916.16;;;16.99;44.13
56713;BME280;42589;45.536;9.032;2023-03-20T01:28:29;99934.06;;;17.13;44.06
56713;BME280;42589;45.536;9.032;2023-03-20T01:31:30;99939.31;;;17.00;44.16
56713;BME280;42589;45.536;9.032;2023-03-20T01:34:31;99933.22;;;16.91;44.27
56713;BME280;42589;45.536;9.032;2023-03-20T01:37:32;99912.44;;;16.79;44.45
56713;BME280;42589;45.536;9.032;2023-03-20T01:43:45;99938.25;;;16.80;44.39
56713;BME280;42589;45.536;9.032;2023-03-20T01:46:46;99933.72;;;16.65;44.25
56713;BME280;42589;45.536;9.032;2023-03-20T01:53:20;99931.00;;;16.80;44.12
56713;BME280;42589;45.536;9.032;2023-03-20T01:56:22;99936.19;;;16.31;44.38
56713;BME280;42589;45.536;9.032;2023-03-20T01:59:27;99929.88;;;16.53;44.63
56713;BME280;42589;45.536;9.032;2023-03-20T02:02:30;99920.91;;;16.46;44.66
56713;BME280;42589;45.536;9.032;2023-03-20T02:05:31;99918.97;;;16.40;44.81
56713;BME280;42589;45.536;9.032;2023-03-20T02:08:39;99930.84;;;16.52;45.26
56713;BME280;42589;45.536;9.032;2023-03-20T02:11:42;99919.69;;;16.48;44.53
56713;BME280;42589;45.536;9.032;2023-03-20T02:14:45;99920.97;;;16.53;44.54
56713;BME280;42589;45.536;9.032;2023-03-20T02:17:47;99917.75;;;16.42;44.39
56713;BME280;42589;45.536;9.032;2023-03-20T02:41:21;99908.53;;;16.15;45.09
56713;BME280;42589;45.536;9.032;2023-03-20T02:47:37;99900.59;;;15.92;45.32
56713;BME280;42589;45.536;9.032;2023-03-20T02:50:57;99917.13;;;16.11;45.67
56713;BME280;42589;45.536;9.032;2023-03-20T02:57:13;99889.66;;;15.94;45.61
56713;BME280;42589;45.536;9.032;2023-03-20T03:00:35;99914.34;;;16.04;44.97
56713;BME280;42589;45.536;9.032;2023-03-20T03:03:56;99918.72;;;16.05;44.76
56713;BME280;42589;45.536;9.032;2023-03-20T03:07:02;99896.13;;;15.85;45.69
56713;BME280;42589;45.536;9.032;2023-03-20T03:10:06;99906.84;;;16.44;45.59
56713;BME280;42589;45.536;9.032;2023-03-20T03:13:13;99913.53;;;16.18;45.45
56713;BME280;42589;45.536;9.032;2023-03-20T03:16:22;99918.16;;;16.10;45.12
56713;BME280;42589;45.536;9.032;2023-03-20T03:19:25;99901.50;;;15.99;45.25
56713;BME280;42589;45.536;9.032;2023-03-20T03:22:27;99907.91;;;15.98;45.15
56713;BME280;42589;45.536;9.032;2023-03-20T03:25:35;99912.88;;;16.01;45.61
56713;BME280;42589;45.536;9.032;2023-03-20T03:28:41;99909.81;;;15.90;44.94
56713;BME280;42589;45.536;9.032;2023-03-20T03:31:43;99900.66;;;15.69;45.69
56713;BME280;42589;45.536;9.032;2023-03-20T03:34:44;99914.69;;;15.71;45.85
56713;BME280;42589;45.536;9.032;2023-03-20T03:37:57;99893.28;;;15.86;46.02
56713;BME280;42589;45.536;9.032;2023-03-20T03:50:39;99927.47;;;15.84;46.14
56713;BME280;42589;45.536;9.032;2023-03-20T03:53:53;99913.44;;;15.21;48.43
56713;BME280;42589;45.536;9.032;2023-03-20T03:56:57;99923.13;;;15.45;45.71
56713;BME280;42589;45.536;9.032;2023-03-20T04:00:00;99910.13;;;15.19;46.23
56713;BME280;42589;45.536;9.032;2023-03-20T04:03:04;99913.16;;;15.16;47.61
56713;BME280;42589;45.536;9.032;2023-03-20T04:06:07;99923.28;;;15.29;47.53
56713;BME280;42589;45.536;9.032;2023-03-20T04:09:09;99917.41;;;14.56;47.66
56713;BME280;42589;45.536;9.032;2023-03-20T04:15:33;99927.06;;;14.57;48.48
56713;BME280;42589;45.536;9.032;2023-03-20T04:18:35;99922.94;;;14.47;48.64
56713;BME280;42589;45.536;9.032;2023-03-20T04:21:36;99920.75;;;14.81;48.46
56713;BME280;42589;45.536;9.032;2023-03-20T04:24:37;99934.03;;;14.98;47.34
56713;BME280;42589;45.536;9.032;2023-03-20T04:27:39;99935.72;;;14.68;47.49
56713;BME280;42589;45.536;9.032;2023-03-20T04:30:39;99922.25;;;14.45;48.20
56713;BME280;42589;45.536;9.032;2023-03-20T04:33:41;99943.34;;;14.79;47.38
56713;BME280;42589;45.536;9.032;2023-03-20T04:36:42;99941.16;;;15.05;46.91
56713;BME280;42589;45.536;9.032;2023-03-20T04:39:43;99933.03;;;14.68;48.77
56713;BME280;42589;45.536;9.032;2023-03-20T04:42:44;99951.69;;;14.36;48.39
56713;BME280;42589;45.536;9.032;2023-03-20T04:45:45;99942.28;;;14.49;48.92
56713;BME280;42589;45.536;9.032;2023-03-20T04:48:46;99926.72;;;14.92;47.25
56713;BME280;42589;45.536;9.032;2023-03-20T04:51:47;99931.13;;;14.53;48.62
56713;BME280;42589;45.536;9.032;2023-03-20T04:54:48;99945.13;;;14.86;48.18
56713;BME280;42589;45.536;9.032;2023-03-20T04:57:49;99915.22;;;15.06;47.56
56713;BME280;42589;45.536;9.032;2023-03-20T05:00:50;99939.31;;;15.06;46.25
56713;BME280;42589;45.536;9.032;2023-03-20T05:03:51;99916.41;;;14.80;46.87
56713;BME280;42589;45.536;9.032;2023-03-20T05:06:52;99936.59;;;14.91;46.55
56713;BME280;42589;45.536;9.032;2023-03-20T05:09:52;99938.59;;;14.89;46.89
56713;BME280;42589;45.536;9.032;2023-03-20T05:12:53;99933.47;;;14.79;47.27
56713;BME280;42589;45.536;9.032;2023-03-20T05:15:54;99906.22;;;14.53;47.89
56713;BME280;42589;45.536;9.032;2023-03-20T05:18:55;99932.81;;;14.77;47.06
56713;BME280;42589;45.536;9.032;2023-03-20T05:21:57;99938.25;;;14.92;46.92
56713;BME280;42589;45.536;9.032;2023-03-20T05:24:58;99951.03;;;15.05;46.88
56713;BME280;42589;45.536;9.032;2023-03-20T05:28:03;99933.50;;;15.02;47.34
56713;BME280;42589;45.536;9.032;2023-03-20T05:31:05;99942.47;;;15.09;46.38
56713;BME280;42589;45.536;9.032;2023-03-20T05:34:06;99933.69;;;15.01;47.82
56713;BME280;42589;45.536;9.032;2023-03-20T05:37:08;99969.25;;;15.09;46.82
56713;BME280;42589;45.536;9.032;2023-03-20T05:40:13;99966.63;;;15.24;46.97
56713;BME280;42589;45.536;9.032;2023-03-20T05:43:19;99965.88;;;15.39;47.33
56713;BME280;42589;45.536;9.032;2023-03-20T05:46:21;99969.38;;;15.16;46.82
56713;BME280;42589;45.536;9.032;2023-03-20T05:49:22;99965.78;;;15.47;45.79
56713;BME280;42589;45.536;9.032;2023-03-20T05:52:23;99954.59;;;15.43;46.41
56713;BME280;42589;45.536;9.032;2023-03-20T05:55:25;99971.66;;;15.65;45.88
56713;BME280;42589;45.536;9.032;2023-03-20T05:58:26;99967.94;;;15.51;46.57
56713;BME280;42589;45.536;9.032;2023-03-20T06:01:27;99986.88;;;15.50;46.28
56713;BME280;42589;45.536;9.032;2023-03-20T06:04:27;99968.78;;;15.52;45.85
56713;BME280;42589;45.536;9.032;2023-03-20T06:07:29;99987.28;;;15.62;45.17
56713;BME280;42589;45.536;9.032;2023-03-20T06:10:30;99987.06;;;15.71;45.25
56713;BME280;42589;45.536;9.032;2023-03-20T06:13:31;99989.69;;;15.80;45.03
56713;BME280;42589;45.536;9.032;2023-03-20T06:16:32;99988.47;;;15.82;45.60
56713;BME280;42589;45.536;9.032;2023-03-20T06:19:33;99995.16;;;15.86;45.64
56713;BME280;42589;45.536;9.032;2023-03-20T06:22:37;99985.25;;;15.87;45.60
56713;BME280;42589;45.536;9.032;2023-03-20T06:25:37;100000.00;;;15.60;46.32
56713;BME280;42589;45.536;9.032;2023-03-20T06:28:38;100000.38;;;15.33;46.36
56713;BME280;42589;45.536;9.032;2023-03-20T06:31:40;99989.47;;;15.81;45.79
56713;BME280;42589;45.536;9.032;2023-03-20T06:34:40;100006.78;;;15.93;45.44
56713;BME280;42589;45.536;9.032;2023-03-20T06:37:44;100002.94;;;15.96;46.64
56713;BME280;42589;45.536;9.032;2023-03-20T06:40:45;100006.44;;;15.96;46.40
56713;BME280;42589;45.536;9.032;2023-03-20T06:43:46;100012.47;;;16.13;44.85
56713;BME280;42589;45.536;9.032;2023-03-20T06:46:48;100003.41;;;16.44;45.05
56713;BME280;42589;45.536;9.032;2023-03-20T06:49:49;99999.59;;;16.68;44.56
56713;BME280;42589;45.536;9.032;2023-03-20T06:52:50;100012.38;;;16.81;44.41
56713;BME280;42589;45.536;9.032;2023-03-20T06:55:51;99991.09;;;16.79;44.00
56713;BME280;42589;45.536;9.032;2023-03-20T06:58:52;100001.63;;;16.81;44.21
56713;BME280;42589;45.536;9.032;2023-03-20T07:01:52;99999.34;;;16.48;45.34
56713;BME280;42589;45.536;9.032;2023-03-20T07:04:54;100012.28;;;16.89;44.73
56713;BME280;42589;45.536;9.032;2023-03-20T07:07:58;100008.22;;;16.63;45.89
56713;BME280;42589;45.536;9.032;2023-03-20T07:10:59;99999.41;;;17.21;44.43
56713;BME280;42589;45.536;9.032;2023-03-20T07:14:00;99996.00;;;17.12;44.02
56713;BME280;42589;45.536;9.032;2023-03-20T07:17:01;100014.34;;;17.45;43.66
56713;BME280;42589;45.536;9.032;2023-03-20T07:20:06;100016.09;;;16.80;45.32
56713;BME280;42589;45.536;9.032;2023-03-20T07:23:09;100005.00;;;16.38;46.32
56713;BME280;42589;45.536;9.032;2023-03-20T07:26:11;100000.94;;;17.08;46.39
56713;BME280;42589;45.536;9.032;2023-03-20T07:29:12;99981.59;;;17.13;44.86
56713;BME280;42589;45.536;9.032;2023-03-20T07:32:13;100003.41;;;17.46;45.45
56713;BME280;42589;45.536;9.032;2023-03-20T07:35:14;100003.69;;;18.01;44.55
56713;BME280;42589;45.536;9.032;2023-03-20T07:38:15;100004.31;;;18.03;44.37
56713;BME280;42589;45.536;9.032;2023-03-20T07:41:16;100022.28;;;18.59;43.36
56713;BME280;42589;45.536;9.032;2023-03-20T07:44:17;100032.66;;;18.62;43.00
56713;BME280;42589;45.536;9.032;2023-03-20T07:47:18;100006.00;;;18.39;43.92
56713;BME280;42589;45.536;9.032;2023-03-20T07:50:19;100007.47;;;18.76;42.90
56713;BME280;42589;45.536;9.032;2023-03-20T07:53:20;100011.06;;;18.96;43.17
56713;BME280;42589;45.536;9.032;2023-03-20T07:56:23;100016.91;;;19.00;42.07
56713;BME280;42589;45.536;9.032;2023-03-20T07:59:24;100029.22;;;19.29;41.99
56713;BME280;42589;45.536;9.032;2023-03-20T08:02:25;100025.81;;;19.07;42.71
56713;BME280;42589;45.536;9.032;2023-03-20T08:05:25;100019.03;;;19.31;41.89
56713;BME280;42589;45.536;9.032;2023-03-20T08:08:26;100039.63;;;18.84;43.00
56713;BME280;42589;45.536;9.032;2023-03-20T08:11:27;100038.94;;;19.30;42.41
56713;BME280;42589;45.536;9.032;2023-03-20T08:14:28;100031.69;;;19.37;42.30
56713;BME280;42589;45.536;9.032;2023-03-20T08:17:29;100029.94;;;19.71;41.42
56713;BME280;42589;45.536;9.032;2023-03-20T08:20:30;100040.03;;;19.62;41.09
56713;BME280;42589;45.536;9.032;2023-03-20T08:23:30;100034.47;;;20.04;40.93
56713;BME280;42589;45.536;9.032;2023-03-20T08:26:31;100038.25;;;19.76;41.50
56713;BME280;42589;45.536;9.032;2023-03-20T08:29:32;100059.78;;;20.36;40.70
56713;BME280;42589;45.536;9.032;2023-03-20T08:32:33;100054.41;;;20.23;40.34
56713;BME280;42589;45.536;9.032;2023-03-20T08:35:34;100045.09;;;19.92;40.47
56713;BME280;42589;45.536;9.032;2023-03-20T08:38:35;100047.38;;;20.02;40.82
56713;BME280;42589;45.536;9.032;2023-03-20T08:41:36;100059.56;;;20.51;40.75
56713;BME280;42589;45.536;9.032;2023-03-20T08:44:42;100052.34;;;20.18;39.97
56713;BME280;42589;45.536;9.032;2023-03-20T08:47:46;100067.03;;;20.42;40.56
56713;BME280;42589;45.536;9.032;2023-03-20T08:50:47;100064.31;;;20.75;39.82
56713;BME280;42589;45.536;9.032;2023-03-20T08:53:53;100051.69;;;20.49;41.10
56713;BME280;42589;45.536;9.032;2023-03-20T08:56:55;100044.63;;;20.35;39.57
56713;BME280;42589;45.536;9.032;2023-03-20T08:59:55;100065.72;;;20.91;40.14
56713;BME280;42589;45.536;9.032;2023-03-20T09:02:56;100068.38;;;21.04;39.32
56713;BME280;42589;45.536;9.032;2023-03-20T09:05:57;100041.25;;;20.73;39.86
56713;BME280;42589;45.536;9.032;2023-03-20T09:08:58;100070.69;;;20.94;40.15
56713;BME280;42589;45.536;9.032;2023-03-20T09:12:00;100063.06;;;20.78;40.27
56713;BME280;42589;45.536;9.032;2023-03-20T09:15:02;100062.63;;;20.88;39.64
56713;BME280;42589;45.536;9.032;2023-03-20T09:18:03;100054.47;;;20.94;39.71
56713;BME280;42589;45.536;9.032;2023-03-20T09:21:05;100065.69;;;20.98;39.04
56713;BME280;42589;45.536;9.032;2023-03-20T09:24:06;100060.94;;;20.93;39.94
56713;BME280;42589;45.536;9.032;2023-03-20T09:27:08;100062.09;;;21.55;38.83
56713;BME280;42589;45.536;9.032;2023-03-20T09:30:09;100064.50;;;20.74;41.08
56713;BME280;42589;45.536;9.032;2023-03-20T09:33:10;100042.63;;;21.33;39.16
56713;BME280;42589;45.536;9.032;2023-03-20T09:36:12;100050.19;;;20.73;41.05
56713;BME280;42589;45.536;9.032;2023-03-20T09:39:15;100048.41;;;21.75;38.59
56713;BME280;42589;45.536;9.032;2023-03-20T09:45:52;100036.97;;;22.48;37.48
56713;BME280;42589;45.536;9.032;2023-03-20T09:52:53;100040.78;;;22.22;37.61
56713;BME280;42589;45.536;9.032;2023-03-20T09:55:56;100025.50;;;22.71;36.29
56713;BME280;42589;45.536;9.032;2023-03-20T10:02:13;100014.13;;;22.81;37.02
56713;BME280;42589;45.536;9.032;2023-03-20T10:05:27;100027.75;;;22.75;37.15
56713;BME280;42589;45.536;9.032;2023-03-20T10:08:33;100026.63;;;23.31;36.13
56713;BME280;42589;45.536;9.032;2023-03-20T10:15:24;100026.84;;;23.29;35.98
56713;BME280;42589;45.536;9.032;2023-03-20T10:18:34;100013.22;;;23.06;36.37
56713;BME280;42589;45.536;9.032;2023-03-20T10:21:45;100024.31;;;23.46;36.45
56713;BME280;42589;45.536;9.032;2023-03-20T10:24:55;100023.53;;;22.97;34.80
56713;BME280;42589;45.536;9.032;2023-03-20T10:28:16;100028.63;;;22.32;36.61
56713;BME280;42589;45.536;9.032;2023-03-20T10:35:08;100035.53;;;23.92;34.50
56713;BME280;42589;45.536;9.032;2023-03-20T10:41:37;100017.22;;;23.87;34.14
56713;BME280;42589;45.536;9.032;2023-03-20T10:44:47;100023.53;;;24.58;33.86
56713;BME280;42589;45.536;9.032;2023-03-20T10:47:52;100031.66;;;24.11;33.96
56713;BME280;42589;45.536;9.032;2023-03-20T10:50:56;100024.09;;;23.48;36.43
56713;BME280;42589;45.536;9.032;2023-03-20T10:54:01;100028.09;;;23.87;35.84
56713;BME280;42589;45.536;9.032;2023-03-20T10:57:05;100027.34;;;23.08;36.16
56713;BME280;42589;45.536;9.032;2023-03-20T11:00:20;100027.44;;;23.01;37.60
56713;BME280;42589;45.536;9.032;2023-03-20T11:03:23;100008.66;;;23.18;36.54
56713;BME280;42589;45.536;9.032;2023-03-20T11:06:27;100014.63;;;23.08;35.80
56713;BME280;42589;45.536;9.032;2023-03-20T11:09:31;100007.91;;;23.11;35.65
56713;BME280;42589;45.536;9.032;2023-03-20T11:12:41;100007.16;;;23.22;36.21
56713;BME280;42589;45.536;9.032;2023-03-20T11:15:43;100012.28;;;23.96;34.80
56713;BME280;42589;45.536;9.032;2023-03-20T11:18:43;100010.94;;;23.63;34.67
56713;BME280;42589;45.536;9.032;2023-03-20T11:21:54;100013.81;;;24.15;33.19
56713;BME280;42589;45.536;9.032;2023-03-20T11:24:57;100001.19;;;23.97;34.11
56713;BME280;42589;45.536;9.032;2023-03-20T11:31:38;100002.38;;;24.13;33.95
56713;BME280;42589;45.536;9.032;2023-03-20T11:34:42;99999.06;;;23.76;35.18
56713;BME280;42589;45.536;9.032;2023-03-20T11:37:50;99997.41;;;23.86;35.13
56713;BME280;42589;45.536;9.032;2023-03-20T11:40:51;99995.53;;;24.11;35.23
56713;BME280;42589;45.536;9.032;2023-03-20T11:43:53;99981.69;;;24.00;34.85
56713;BME280;42589;45.536;9.032;2023-03-20T11:47:00;99983.28;;;23.54;35.82
56713;BME280;42589;45.536;9.032;2023-03-20T11:50:05;99981.59;;;23.95;34.36
56713;BME280;42589;45.536;9.032;2023-03-20T11:53:25;99982.06;;;24.16;34.57
56713;BME280;42589;45.536;9.032;2023-03-20T11:56:29;99977.69;;;23.91;35.12
56713;BME280;42589;45.536;9.032;2023-03-20T11:59:36;99967.47;;;23.51;35.21
56713;BME280;42589;45.536;9.032;2023-03-20T12:02:40;99974.88;;;23.02;34.84
56713;BME280;42589;45.536;9.032;2023-03-20T12:05:40;99960.81;;;23.24;35.74
56713;BME280;42589;45.536;9.032;2023-03-20T12:08:56;99961.00;;;22.92;35.38
56713;BME280;42589;45.536;9.032;2023-03-20T12:12:07;99938.91;;;23.25;36.19
56713;BME280;42589;45.536;9.032;2023-03-20T12:18:42;99949.59;;;24.21;35.16
56713;BME280;42589;45.536;9.032;2023-03-20T12:21:55;99936.16;;;24.14;34.20
56713;BME280;42589;45.536;9.032;2023-03-20T12:25:19;99942.19;;;24.04;33.62
56713;BME280;42589;45.536;9.032;2023-03-20T12:28:37;99903.50;;;24.38;33.50
56713;BME280;42589;45.536;9.032;2023-03-20T12:31:47;99911.53;;;24.44;33.23
56713;BME280;42589;45.536;9.032;2023-03-20T12:34:53;99911.31;;;24.34;34.22
56713;BME280;42589;45.536;9.032;2023-03-20T12:37:56;99887.41;;;24.07;33.38
56713;BME280;42589;45.536;9.032;2023-03-20T12:58:17;99903.78;;;25.39;33.23
56713;BME280;42589;45.536;9.032;2023-03-20T13:01:30;99913.31;;;25.24;33.78
56713;BME280;42589;45.536;9.032;2023-03-20T13:21:04;99880.03;;;24.89;32.67
56713;BME280;42589;45.536;9.032;2023-03-20T13:24:29;99889.75;;;24.04;33.80
56713;BME280;42589;45.536;9.032;2023-03-20T13:27:44;99866.09;;;24.68;33.54
56713;BME280;42589;45.536;9.032;2023-03-20T13:30:55;99872.56;;;24.96;33.04
56713;BME280;42589;45.536;9.032;2023-03-20T13:37:46;99875.44;;;24.61;33.62
56713;BME280;42589;45.536;9.032;2023-03-20T13:41:06;99882.13;;;25.44;33.48
56713;BME280;42589;45.536;9.032;2023-03-20T13:44:09;99877.63;;;25.21;33.08
56713;BME280;42589;45.536;9.032;2023-03-20T13:47:15;99882.25;;;24.75;33.59
56713;BME280;42589;45.536;9.032;2023-03-20T13:50:31;99882.28;;;24.92;33.48
56713;BME280;42589;45.536;9.032;2023-03-20T13:54:00;99886.94;;;24.51;33.94
56713;BME280;42589;45.536;9.032;2023-03-20T14:09:33;99880.53;;;24.57;33.55
56713;BME280;42589;45.536;9.032;2023-03-20T14:12:34;99884.75;;;24.24;33.44
56713;BME280;42589;45.536;9.032;2023-03-20T14:15:37;99872.88;;;24.54;33.86
56713;BME280;42589;45.536;9.032;2023-03-20T14:18:40;99855.16;;;24.51;33.39
56713;BME280;42589;45.536;9.032;2023-03-20T14:21:48;99871.97;;;25.22;32.93
56713;BME280;42589;45.536;9.032;2023-03-20T14:25:07;99881.09;;;25.33;32.61
56713;BME280;42589;45.536;9.032;2023-03-20T14:28:23;99869.66;;;25.14;32.30
56713;BME280;42589;45.536;9.032;2023-03-20T14:31:32;99838.16;;;24.73;33.38
56713;BME280;42589;45.536;9.032;2023-03-20T14:34:50;99866.34;;;24.26;33.99
56713;BME280;42589;45.536;9.032;2023-03-20T14:41:18;99860.19;;;24.88;32.34
56713;BME280;42589;45.536;9.032;2023-03-20T14:47:43;99864.66;;;24.25;33.63
56713;BME280;42589;45.536;9.032;2023-03-20T14:50:54;99869.34;;;23.90;34.35
56713;BME280;42589;45.536;9.032;2023-03-20T14:57:33;99861.97;;;24.66;33.12
56713;BME280;42589;45.536;9.032;2023-03-20T15:00:44;99859.28;;;24.54;33.08
56713;BME280;42589;45.536;9.032;2023-03-20T15:03:52;99861.38;;;24.64;33.69
56713;BME280;42589;45.536;9.032;2023-03-20T15:09:59;99857.75;;;24.58;33.27
56713;BME280;42589;45.536;9.032;2023-03-20T15:13:04;99853.59;;;24.27;34.05
56713;BME280;42589;45.536;9.032;2023-03-20T15:16:11;99848.41;;;24.54;33.08
56713;BME280;42589;45.536;9.032;2023-03-20T15:19:16;99844.13;;;24.29;33.35
56713;BME280;42589;45.536;9.032;2023-03-20T15:22:19;99861.44;;;24.40;33.60
56713;BME280;42589;45.536;9.032;2023-03-20T15:25:21;99849.91;;;24.90;32.46
56713;BME280;42589;45.536;9.032;2023-03-20T15:28:26;99847.56;;;24.82;32.50
56713;BME280;42589;45.536;9.032;2023-03-20T15:31:33;99825.38;;;24.57;32.91
56713;BME280;42589;45.536;9.032;2023-03-20T15:34:35;99842.09;;;24.37;33.26
56713;BME280;42589;45.536;9.032;2023-03-20T15:37:42;99827.38;;;24.61;32.88
56713;BME280;42589;45.536;9.032;2023-03-20T15:40:44;99834.34;;;24.17;33.04
56713;BME280;42589;45.536;9.032;2023-03-20T15:43:45;99850.75;;;24.62;32.75
56713;BME280;42589;45.536;9.032;2023-03-20T15:50:12;99830.19;;;24.26;32.84
56713;BME280;42589;45.536;9.032;2023-03-20T15:53:17;99843.94;;;25.22;32.26
56713;BME280;42589;45.536;9.032;2023-03-20T15:56:23;99820.97;;;23.98;33.16
56713;BME280;42589;45.536;9.032;2023-03-20T15:59:28;99843.91;;;24.60;31.52
56713;BME280;42589;45.536;9.032;2023-03-20T16:02:31;99847.16;;;24.73;30.81
56713;BME280;42589;45.536;9.032;2023-03-20T16:05:32;99823.31;;;24.64;31.21
56713;BME280;42589;45.536;9.032;2023-03-20T16:08:34;99836.97;;;24.81;31.68
56713;BME280;42589;45.536;9.032;2023-03-20T16:11:38;99843.16;;;24.64;32.01
56713;BME280;42589;45.536;9.032;2023-03-20T16:14:39;99839.53;;;24.87;31.88
56713;BME280;42589;45.536;9.032;2023-03-20T16:17:40;99829.63;;;24.81;31.95
56713;BME280;42589;45.536;9.032;2023-03-20T16:20:48;99830.38;;;24.93;31.38
56713;BME280;42589;45.536;9.032;2023-03-20T16:23:58;99841.22;;;26.16;30.08
56713;BME280;42589;45.536;9.032;2023-03-20T16:27:00;99835.81;;;26.22;29.24
56713;BME280;42589;45.536;9.032;2023-03-20T16:30:52;99833.75;;;25.85;29.78
56713;BME280;42589;45.536;9.032;2023-03-20T16:33:29;99841.03;;;24.66;31.20
56713;BME280;42589;45.536;9.032;2023-03-20T16:36:34;99833.81;;;23.91;31.78
56713;BME280;42589;45.536;9.032;2023-03-20T16:39:35;99820.28;;;23.32;32.57
56713;BME280;42589;45.536;9.032;2023-03-20T16:42:36;99827.00;;;23.77;32.08
56713;BME280;42589;45.536;9.032;2023-03-20T16:45:51;99836.50;;;24.15;32.25
56713;BME280;42589;45.536;9.032;2023-03-20T16:48:57;99810.84;;;23.70;32.57
56713;BME280;42589;45.536;9.032;2023-03-20T16:52:14;99826.66;;;23.73;32.57
56713;BME280;42589;45.536;9.032;2023-03-20T16:55:46;99829.13;;;23.16;33.28
56713;BME280;42589;45.536;9.032;2023-03-20T16:58:46;99821.44;;;23.36;32.63
56713;BME280;42589;45.536;9.032;2023-03-20T17:01:50;99831.25;;;23.37;33.11
56713;BME280;42589;45.536;9.032;2023-03-20T17:04:55;99817.31;;;23.10;33.33
56713;BME280;42589;45.536;9.032;2023-03-20T17:08:03;99841.38;;;23.30;33.10
56713;BME280;42589;45.536;9.032;2023-03-20T17:11:13;99832.25;;;23.01;34.21
56713;BME280;42589;45.536;9.032;2023-03-20T17:14:14;99851.47;;;23.11;33.67
56713;BME280;42589;45.536;9.032;2023-03-20T17:17:18;99852.41;;;22.93;33.75
56713;BME280;42589;45.536;9.032;2023-03-20T17:20:26;99859.09;;;22.91;33.93
56713;BME280;42589;45.536;9.032;2023-03-20T17:23:28;99858.25;;;22.90;33.81
56713;BME280;42589;45.536;9.032;2023-03-20T17:26:32;99869.78;;;22.86;34.35
56713;BME280;42589;45.536;9.032;2023-03-20T17:29:32;99870.81;;;22.73;34.40
56713;BME280;42589;45.536;9.032;2023-03-20T17:32:32;99862.88;;;22.60;34.61
56713;BME280;42589;45.536;9.032;2023-03-20T17:35:33;99876.19;;;22.61;34.69
56713;BME280;42589;45.536;9.032;2023-03-20T17:38:35;99876.69;;;22.40;34.98
56713;BME280;42589;45.536;9.032;2023-03-20T17:41:36;99885.16;;;22.43;35.00
56713;BME280;42589;45.536;9.032;2023-03-20T17:44:37;99881.03;;;22.22;35.26
56713;BME280;42589;45.536;9.032;2023-03-20T17:47:38;99868.25;;;22.11;35.25
56713;BME280;42589;45.536;9.032;2023-03-20T17:50:43;99878.63;;;22.14;35.51
56713;BME280;42589;45.536;9.032;2023-03-20T17:53:44;99891.53;;;22.12;35.59
56713;BME280;42589;45.536;9.032;2023-03-20T17:56:45;99902.94;;;22.21;35.80
56713;BME280;42589;45.536;9.032;2023-03-20T17:59:47;99891.94;;;22.16;35.47
56713;BME280;42589;45.536;9.032;2023-03-20T18:02:54;99882.97;;;21.97;35.77
56713;BME280;42589;45.536;9.032;2023-03-20T18:05:58;99905.59;;;22.02;35.98
56713;BME280;42589;45.536;9.032;2023-03-20T18:09:00;99910.97;;;22.46;35.39
56713;BME280;42589;45.536;9.032;2023-03-20T18:12:20;99914.75;;;21.83;36.74
56713;BME280;42589;45.536;9.032;2023-03-20T18:15:20;99894.22;;;21.75;36.36
56713;BME280;42589;45.536;9.032;2023-03-20T18:18:22;99918.56;;;21.75;36.36
56713;BME280;42589;45.536;9.032;2023-03-20T18:21:24;99931.13;;;21.70;36.64
56713;BME280;42589;45.536;9.032;2023-03-20T18:24:25;99928.13;;;21.53;37.15
56713;BME280;42589;45.536;9.032;2023-03-20T18:27:26;99942.00;;;21.31;37.45
56713;BME280;42589;45.536;9.032;2023-03-20T18:30:35;99942.16;;;21.43;37.89
56713;BME280;42589;45.536;9.032;2023-03-20T18:33:36;99948.44;;;21.37;37.64